Time;durP1;ratioP1;P1;durP2;ratioP2;P2;SDS_P1;SDS_P2;PMS_P1;PMS_P2;Temp;Humidity;BMP_temperature;BMP_pressure;BME280_temperature;BME280_humidity;BME280_pressure;Samples;Min_cycle;Max_cycle;Signal;HPM_P1;HPM_P2
2021/12/11 00:02:32;;;;;;;29.92;13.10;;;-3.70;99.90;;;;;;5012129;28;20267;-80
2021/12/11 00:05:18;;;;;;;32.17;11.65;;;-3.50;99.90;;;;;;5023769;28;20123;-80
2021/12/11 00:08:05;;;;;;;26.30;10.93;;;-3.30;99.90;;;;;;5010208;28;20071;-80
2021/12/11 00:11:17;;;;;;;27.45;12.35;;;-3.40;99.90;;;;;;5024866;28;20057;-80
2021/12/11 00:14:05;;;;;;;27.23;12.25;;;-3.50;99.90;;;;;;5021602;28;20207;-82
2021/12/11 00:16:51;;;;;;;28.70;11.98;;;-3.60;99.90;;;;;;5031832;28;20072;-82
2021/12/11 00:19:39;;;;;;;25.30;11.65;;;-3.50;99.90;;;;;;5033945;28;20127;-80
2021/12/11 00:22:29;;;;;;;32.08;12.52;;;-3.40;99.90;;;;;;5014024;28;20152;-81
2021/12/11 00:25:16;;;;;;;29.52;12.25;;;-3.50;99.90;;;;;;5014487;28;20064;-81
2021/12/11 00:28:06;;;;;;;27.30;12.13;;;-3.70;99.90;;;;;;5028846;28;20119;-82
2021/12/11 00:30:53;;;;;;;26.52;12.90;;;-3.70;99.90;;;;;;5036381;28;20100;-81
2021/12/11 00:33:39;;;;;;;28.95;12.18;;;-3.70;99.90;;;;;;5037581;28;20053;-82
2021/12/11 00:36:32;;;;;;;31.77;14.45;;;-3.60;99.90;;;;;;5022740;28;20055;-82
2021/12/11 00:39:18;;;;;;;43.15;16.35;;;-3.40;99.90;;;;;;5034251;28;20072;-81
2021/12/11 00:42:09;;;;;;;40.08;16.88;;;-3.30;99.90;;;;;;5037550;28;20126;-82
2021/12/11 00:44:55;;;;;;;31.77;13.77;;;-3.20;99.90;;;;;;5050030;28;20269;-81
2021/12/11 00:47:50;;;;;;;30.58;13.68;;;-3.20;99.90;;;;;;5030376;28;20059;-81
2021/12/11 00:50:41;;;;;;;40.92;16.30;;;-3.30;99.90;;;;;;5054157;28;20137;-80
2021/12/11 00:53:55;;;;;;;31.05;13.63;;;-3.50;99.90;;;;;;5015014;28;20084;-80
2021/12/11 00:56:41;;;;;;;36.13;13.57;;;-3.60;99.90;;;;;;5000596;28;20209;-80
2021/12/11 00:59:27;;;;;;;30.65;13.23;;;-3.60;99.90;;;;;;4999112;28;20518;-80
2021/12/11 01:02:13;;;;;;;30.63;12.57;;;-3.60;99.90;;;;;;5017958;28;20160;-81
2021/12/11 01:04:59;;;;;;;32.60;13.65;;;-3.50;99.90;;;;;;5014381;28;20418;-80
2021/12/11 01:07:45;;;;;;;31.20;13.40;;;-3.50;99.90;;;;;;5017687;28;20674;-81
2021/12/11 01:10:31;;;;;;;35.03;14.95;;;-3.50;99.90;;;;;;5027438;28;20056;-80
2021/12/11 01:13:21;;;;;;;32.83;13.70;;;-3.60;99.90;;;;;;5018883;28;20065;-79
2021/12/11 01:16:12;;;;;;;32.65;14.35;;;-3.70;99.90;;;;;;5043463;28;20122;-80
2021/12/11 01:19:00;;;;;;;31.52;15.27;;;-3.80;99.90;;;;;;5018273;28;20080;-81
2021/12/11 01:21:59;;;;;;;38.08;13.85;;;-3.60;99.90;;;;;;5027058;28;20065;-79
2021/12/11 01:24:46;;;;;;;25.55;12.77;;;-3.80;99.90;;;;;;4995556;28;20057;-81
2021/12/11 01:27:32;;;;;;;27.75;12.05;;;-4.00;99.90;;;;;;5021238;28;20088;-79
2021/12/11 01:30:31;;;;;;;23.42;12.05;;;-4.10;99.90;;;;;;5009391;28;20553;-80
2021/12/11 01:33:17;;;;;;;28.75;13.43;;;-4.10;99.90;;;;;;5021195;28;20067;-80
2021/12/11 01:36:05;;;;;;;26.73;13.27;;;-4.10;99.90;;;;;;5019775;28;20068;-81
2021/12/11 01:38:58;;;;;;;26.63;13.43;;;-4.20;99.90;;;;;;5033354;28;20536;-81
2021/12/11 01:41:45;;;;;;;26.00;12.27;;;-4.10;99.90;;;;;;5012920;28;20210;-80
2021/12/11 01:44:34;;;;;;;27.98;12.88;;;-3.90;99.90;;;;;;5027790;28;20092;-80
2021/12/11 01:47:30;;;;;;;29.33;12.43;;;-4.00;99.90;;;;;;5035553;28;20056;-80
2021/12/11 01:50:32;;;;;;;25.25;12.80;;;-4.10;99.90;;;;;;5013129;28;20545;-80
2021/12/11 01:53:26;;;;;;;26.10;11.77;;;-4.30;99.90;;;;;;5028189;28;20041;-80
2021/12/11 01:56:16;;;;;;;26.63;13.27;;;-4.30;99.90;;;;;;5007735;28;20148;-79
2021/12/11 01:59:30;;;;;;;25.00;13.00;;;-4.30;99.90;;;;;;4993858;28;20053;-80
2021/12/11 02:02:22;;;;;;;30.98;13.02;;;-4.40;99.90;;;;;;4991871;28;20061;-80
2021/12/11 02:05:13;;;;;;;22.83;11.60;;;-4.40;99.90;;;;;;5004173;28;20059;-81
2021/12/11 02:08:03;;;;;;;28.48;12.75;;;-4.50;99.90;;;;;;5038233;28;20188;-81
2021/12/11 02:11:00;;;;;;;33.65;14.27;;;-4.40;99.90;;;;;;5029552;28;20048;-80
2021/12/11 02:13:54;;;;;;;29.42;12.73;;;-4.30;99.90;;;;;;5019903;28;20702;-80
2021/12/11 02:16:45;;;;;;;26.50;12.68;;;-4.10;99.90;;;;;;5022840;28;20056;-84
2021/12/11 02:19:36;;;;;;;27.23;12.57;;;-4.10;99.90;;;;;;5026344;28;20059;-79
2021/12/11 02:22:26;;;;;;;25.98;12.35;;;-4.20;99.90;;;;;;5031128;28;20095;-80
2021/12/11 02:25:23;;;;;;;33.50;14.80;;;-4.30;99.90;;;;;;5027325;28;20049;-79
2021/12/11 02:28:39;;;;;;;39.28;15.18;;;-4.20;99.90;;;;;;5006862;28;20072;-80
2021/12/11 02:31:29;;;;;;;;;;;-4.20;99.90;;;;;;4995079;28;20069;-81
2021/12/11 02:34:29;;;;;;;32.10;13.50;;;-4.10;99.90;;;;;;4996593;28;20297;-81
2021/12/11 02:37:29;;;;;;;29.17;13.27;;;-3.90;99.90;;;;;;5024898;28;20064;-79
2021/12/11 02:40:27;;;;;;;28.95;13.70;;;-3.80;99.90;;;;;;5007909;28;20048;-80
2021/12/11 02:43:33;;;;;;;22.70;11.55;;;-4.00;99.90;;;;;;5025448;28;20141;-81
2021/12/11 02:46:23;;;;;;;25.35;11.57;;;-4.30;99.90;;;;;;5037813;28;20152;-79
2021/12/11 02:49:21;;;;;;;33.33;12.55;;;-4.30;99.90;;;;;;5019166;28;20075;-79
2021/12/11 02:52:30;;;;;;;26.10;12.65;;;-4.30;99.90;;;;;;5029999;28;20417;-80
2021/12/11 02:55:28;;;;;;;29.55;12.98;;;-4.40;99.90;;;;;;5030243;28;20060;-80
2021/12/11 02:58:22;;;;;;;28.45;11.93;;;-4.40;99.90;;;;;;5027172;28;20060;-79
2021/12/11 03:01:28;;;;;;;23.42;12.65;;;-4.50;99.90;;;;;;5013422;28;20052;-82
2021/12/11 03:04:28;;;;;;;23.48;12.68;;;-4.60;99.90;;;;;;5028176;28;20048;-80
2021/12/11 03:07:16;;;;;;;34.33;13.70;;;-4.60;99.90;;;;;;5025127;28;20052;-80
2021/12/11 03:10:09;;;;;;;24.33;14.23;;;-4.60;99.90;;;;;;5025506;28;20414;-79
2021/12/11 03:12:55;;;;;;;35.65;14.25;;;-4.40;99.90;;;;;;5013242;28;20059;-82
2021/12/11 03:15:41;;;;;;;32.28;14.45;;;-4.30;99.90;;;;;;5028823;28;20418;-79
2021/12/11 03:18:28;;;;;;;36.08;15.02;;;-4.10;99.90;;;;;;5028386;28;20090;-79
2021/12/11 03:21:13;;;;;;;37.55;14.90;;;-4.10;99.90;;;;;;5044136;28;20071;-79
2021/12/11 03:23:59;;;;;;;35.30;14.40;;;-4.40;99.90;;;;;;5032340;28;20048;-80
2021/12/11 03:26:48;;;;;;;35.25;16.08;;;-4.40;99.90;;;;;;5047277;28;20055;-79
2021/12/11 03:29:33;;;;;;;38.75;15.35;;;-4.40;99.90;;;;;;5029850;28;20123;-80
2021/12/11 03:32:20;;;;;;;34.58;15.63;;;-4.40;99.90;;;;;;5026351;28;20049;-79
2021/12/11 03:35:07;;;;;;;37.10;15.05;;;-4.50;99.90;;;;;;5030131;28;20060;-82
2021/12/11 03:37:53;;;;;;;39.83;16.75;;;-4.40;99.90;;;;;;5019951;28;20561;-80
2021/12/11 03:40:40;;;;;;;39.72;17.75;;;-4.30;99.90;;;;;;5015373;28;20049;-81
2021/12/11 03:43:28;;;;;;;36.00;14.85;;;-4.40;99.90;;;;;;5031079;28;20549;-79
2021/12/11 03:46:14;;;;;;;36.83;14.20;;;-4.40;99.90;;;;;;5029906;28;20072;-79
2021/12/11 03:49:07;;;;;;;38.63;14.68;;;-4.40;99.90;;;;;;5009694;28;20061;-78
2021/12/11 03:51:54;;;;;;;23.60;11.40;;;-4.30;99.90;;;;;;5033476;28;20217;-82
2021/12/11 03:54:42;;;;;;;29.25;11.60;;;-4.30;99.90;;;;;;5019774;28;20140;-81
2021/12/11 03:57:28;;;;;;;31.40;12.77;;;-4.30;99.90;;;;;;5017253;28;20111;-80
2021/12/11 04:00:19;;;;;;;33.65;13.45;;;-4.20;99.90;;;;;;5017192;28;20048;-81
2021/12/11 04:03:07;;;;;;;33.47;14.20;;;-4.20;99.90;;;;;;5030989;28;20131;-78
2021/12/11 04:05:53;;;;;;;27.67;12.07;;;-4.20;99.90;;;;;;5015501;28;20369;-81
2021/12/11 04:08:42;;;;;;;23.63;11.32;;;-4.30;99.90;;;;;;5031164;28;20071;-81
2021/12/11 04:11:32;;;;;;;30.23;12.85;;;-4.30;99.90;;;;;;5019706;28;20287;-82
2021/12/11 04:14:23;;;;;;;25.77;12.55;;;-4.40;99.90;;;;;;5041018;28;20150;-80
2021/12/11 04:17:12;;;;;;;26.02;11.80;;;-4.50;99.90;;;;;;5020772;28;20130;-80
2021/12/11 04:20:03;;;;;;;25.17;11.02;;;-4.50;99.90;;;;;;5029252;28;20052;-79
2021/12/11 04:22:48;;;;;;;28.02;12.63;;;-4.60;99.90;;;;;;5008652;28;20431;-81
2021/12/11 04:25:34;;;;;;;29.52;12.85;;;-4.60;99.90;;;;;;5036912;28;20048;-82
2021/12/11 04:28:21;;;;;;;26.80;13.07;;;-4.60;99.90;;;;;;5022597;28;20064;-81
2021/12/11 04:31:10;;;;;;;30.13;14.68;;;-4.60;99.90;;;;;;5031884;28;20398;-81
2021/12/11 04:34:02;;;;;;;25.88;12.20;;;-4.60;99.90;;;;;;5031288;28;20171;-80
2021/12/11 04:37:00;;;;;;;27.90;13.18;;;-4.50;99.90;;;;;;5028093;28;20061;-80
2021/12/11 04:39:52;;;;;;;27.48;13.25;;;-4.50;99.90;;;;;;5014998;28;20049;-80
2021/12/11 04:45:38;;;;;;;24.65;11.93;;;-4.50;99.90;;;;;;5039934;28;20063;-81
2021/12/11 04:48:44;;;;;;;26.13;12.00;;;-4.60;99.90;;;;;;5042416;28;20064;-79
2021/12/11 04:51:41;;;;;;;30.08;13.80;;;-4.70;99.90;;;;;;5032342;28;20524;-81
2021/12/11 04:57:54;;;;;;;33.58;15.13;;;-4.50;99.90;;;;;;5031386;28;20152;-80
2021/12/11 05:10:33;;;;;;;33.00;15.07;;;-4.30;99.90;;;;;;5028357;28;20458;-81
2021/12/11 05:13:20;;;;;;;39.92;15.10;;;-4.20;99.90;;;;;;5032927;28;20113;-82
2021/12/11 05:16:11;;;;;;;47.72;17.73;;;-4.10;99.90;;;;;;5025320;28;20055;-80
2021/12/11 05:18:56;;;;;;;36.67;18.17;;;-4.00;99.90;;;;;;5007912;28;20183;-82
2021/12/11 05:21:42;;;;;;;41.40;19.17;;;-3.90;99.90;;;;;;5050004;28;20099;-81
2021/12/11 05:24:28;;;;;;;45.42;18.17;;;-3.80;99.90;;;;;;5025269;28;20048;-80
2021/12/11 05:27:14;;;;;;;40.25;18.65;;;-3.70;99.90;;;;;;5015665;28;20115;-81
2021/12/11 05:30:00;;;;;;;34.67;17.02;;;-3.60;99.90;;;;;;5034037;28;20059;-80
2021/12/11 05:32:46;;;;;;;30.85;15.82;;;-3.60;99.90;;;;;;5019735;28;20526;-80
2021/12/11 05:35:37;;;;;;;30.85;15.57;;;-3.70;99.90;;;;;;5035860;28;20140;-82
2021/12/11 05:38:24;;;;;;;36.55;15.23;;;-3.80;99.90;;;;;;5020143;28;20061;-81
2021/12/11 05:41:13;;;;;;;30.05;15.27;;;-3.70;99.90;;;;;;5013853;28;20108;-80
2021/12/11 05:43:59;;;;;;;36.88;16.45;;;-3.50;99.90;;;;;;5032819;28;20068;-79
2021/12/11 05:46:45;;;;;;;37.80;20.17;;;-3.50;99.90;;;;;;5030374;28;20068;-80
2021/12/11 05:49:31;;;;;;;42.42;21.27;;;-3.50;99.90;;;;;;5020907;28;20059;-82
2021/12/11 05:52:18;;;;;;;37.00;20.13;;;-3.50;99.90;;;;;;5026877;28;20060;-81
2021/12/11 05:55:08;;;;;;;36.55;19.90;;;-3.60;99.90;;;;;;5035967;28;20072;-81
2021/12/11 05:57:57;;;;;;;40.67;20.15;;;-3.50;99.90;;;;;;5025149;28;20209;-79
2021/12/11 06:00:46;;;;;;;32.63;20.58;;;-3.30;99.90;;;;;;5022172;28;20064;-81
2021/12/11 06:03:37;;;;;;;41.10;21.25;;;-3.20;99.90;;;;;;5023500;28;20152;-80
2021/12/11 06:06:22;;;;;;;41.85;20.88;;;-3.40;99.90;;;;;;5018296;28;20052;-80
2021/12/11 06:09:11;;;;;;;53.67;24.00;;;-3.20;99.90;;;;;;5030294;28;20060;-80
2021/12/11 06:12:01;;;;;;;45.28;24.75;;;-3.30;99.90;;;;;;5026406;28;20483;-82
2021/12/11 06:14:48;;;;;;;42.95;23.25;;;-3.20;99.90;;;;;;5039519;28;20501;-79
2021/12/11 06:17:35;;;;;;;42.67;21.45;;;-3.10;99.90;;;;;;5039040;28;20155;-80
2021/12/11 06:20:26;;;;;;;38.15;20.70;;;-3.20;99.90;;;;;;5024390;28;20052;-80
2021/12/11 06:23:13;;;;;;;45.92;20.42;;;-3.20;99.90;;;;;;5018251;28;20057;-81
2021/12/11 06:25:58;;;;;;;39.58;20.17;;;-3.30;99.90;;;;;;5027933;28;20059;-80
2021/12/11 06:28:44;;;;;;;44.13;20.08;;;-3.30;99.90;;;;;;5032248;28;20064;-80
2021/12/11 06:31:30;;;;;;;42.35;21.35;;;-3.30;99.90;;;;;;5021533;28;20483;-80
2021/12/11 06:34:16;;;;;;;40.28;22.80;;;-3.30;99.90;;;;;;5012319;28;20072;-80
2021/12/11 06:37:03;;;;;;;51.55;24.98;;;-3.20;99.90;;;;;;5026053;28;20138;-80
2021/12/11 06:39:51;;;;;;;48.85;23.73;;;-3.10;99.90;;;;;;5029106;28;20522;-81
2021/12/11 06:42:37;;;;;;;50.08;26.17;;;-3.10;99.90;;;;;;5019863;28;20056;-79
2021/12/11 06:45:24;;;;;;;48.20;23.27;;;-3.00;99.90;;;;;;5018466;28;20055;-79
2021/12/11 06:48:10;;;;;;;45.72;23.83;;;-2.90;99.90;;;;;;5034727;28;20072;-81
2021/12/11 06:50:58;;;;;;;45.00;22.73;;;-2.80;99.90;;;;;;5033041;28;20056;-79
2021/12/11 06:53:49;;;;;;;38.72;21.83;;;-2.80;99.90;;;;;;5032244;28;20072;-81
2021/12/11 06:56:37;;;;;;;43.08;24.42;;;-2.70;99.90;;;;;;5034617;28;20053;-79
2021/12/11 06:59:24;;;;;;;43.42;24.17;;;-2.60;99.90;;;;;;5022704;28;20544;-81
2021/12/11 07:02:10;;;;;;;45.97;24.95;;;-2.50;99.90;;;;;;5032385;28;20079;-82
2021/12/11 07:04:56;;;;;;;44.88;24.70;;;-2.50;99.90;;;;;;5029436;28;20036;-80
2021/12/11 07:07:43;;;;;;;44.35;24.02;;;-2.50;99.90;;;;;;5030999;28;20109;-81
2021/12/11 07:10:28;;;;;;;49.90;25.67;;;-2.40;99.90;;;;;;5037090;28;20135;-79
2021/12/11 07:13:14;;;;;;;110.85;45.75;;;-2.40;99.90;;;;;;5035079;28;20126;-80
2021/12/11 07:16:01;;;;;;;60.67;31.60;;;-2.30;99.90;;;;;;5048167;28;20106;-81
2021/12/11 07:18:46;;;;;;;69.22;32.97;;;-2.30;99.90;;;;;;5017060;28;20127;-80
2021/12/11 07:21:34;;;;;;;68.38;33.22;;;-2.10;99.90;;;;;;5017475;28;20119;-81
2021/12/11 07:24:30;;;;;;;57.28;31.90;;;-2.10;99.90;;;;;;5020888;28;20056;-80
2021/12/11 07:27:17;;;;;;;55.63;31.83;;;-2.10;99.90;;;;;;5020527;28;20541;-81
2021/12/11 07:30:04;;;;;;;63.88;31.98;;;-2.00;99.90;;;;;;5007523;28;20122;-80
2021/12/11 07:32:54;;;;;;;57.65;31.65;;;-1.90;99.90;;;;;;5012877;28;20116;-80
2021/12/11 07:35:42;;;;;;;63.38;30.80;;;-1.90;99.90;;;;;;5033163;28;20099;-80
2021/12/11 07:38:27;;;;;;;59.25;32.72;;;-1.80;99.90;;;;;;5019756;28;20155;-80
2021/12/11 07:41:15;;;;;;;62.42;31.45;;;-1.70;99.90;;;;;;5030159;28;20064;-80
2021/12/11 07:44:02;;;;;;;56.65;33.72;;;-1.70;99.90;;;;;;5020452;28;20374;-82
2021/12/11 07:46:47;;;;;;;61.88;35.67;;;-1.50;99.90;;;;;;5002657;28;20100;-80
2021/12/11 07:49:33;;;;;;;58.45;32.60;;;-1.50;99.90;;;;;;5008641;28;20179;-84
2021/12/11 07:52:19;;;;;;;60.20;29.73;;;-1.30;99.90;;;;;;5015570;28;20061;-82
2021/12/11 07:55:05;;;;;;;61.30;35.03;;;-1.40;99.90;;;;;;5014869;28;20060;-82
2021/12/11 07:57:51;;;;;;;65.90;35.03;;;-1.50;99.90;;;;;;5024613;28;20056;-83
2021/12/11 08:00:40;;;;;;;67.10;36.03;;;-1.40;99.90;;;;;;5012550;28;20064;-83
2021/12/11 08:03:26;;;;;;;63.85;36.08;;;-1.30;99.90;;;;;;5015021;28;20075;-82
2021/12/11 08:06:14;;;;;;;75.53;38.42;;;-1.10;99.90;;;;;;5021287;28;20076;-81
2021/12/11 08:08:59;;;;;;;65.10;35.97;;;-1.00;99.90;;;;;;5031655;28;20826;-85
2021/12/11 08:11:46;;;;;;;68.20;36.63;;;-0.80;99.90;;;;;;5017963;28;20371;-82
2021/12/11 08:14:32;;;;;;;73.07;35.85;;;-0.80;99.90;;;;;;5024277;28;20139;-85
2021/12/11 08:17:19;;;;;;;71.22;33.53;;;-0.70;99.90;;;;;;5026106;28;20750;-82
2021/12/11 08:20:07;;;;;;;64.95;34.90;;;-0.60;99.90;;;;;;5026895;28;20587;-82
2021/12/11 08:22:54;;;;;;;70.70;35.35;;;-0.60;99.90;;;;;;5019052;28;20560;-83
2021/12/11 08:25:42;;;;;;;70.75;37.40;;;-0.50;99.90;;;;;;5013789;28;20533;-85
2021/12/11 08:28:30;;;;;;;79.10;37.35;;;-0.40;99.90;;;;;;5012761;28;20192;-85
2021/12/11 08:31:16;;;;;;;75.65;40.40;;;-0.40;99.90;;;;;;5013138;28;20601;-83
2021/12/11 08:34:03;;;;;;;75.25;40.55;;;-0.40;99.90;;;;;;5035240;28;20060;-84
2021/12/11 08:36:50;;;;;;;81.07;44.53;;;-0.40;99.90;;;;;;5022729;28;20355;-83
2021/12/11 08:39:36;;;;;;;83.10;42.42;;;-0.30;99.90;;;;;;5029847;28;20048;-83
2021/12/11 08:42:25;;;;;;;91.55;48.05;;;-0.30;99.90;;;;;;5020390;28;20229;-86
2021/12/11 08:45:20;;;;;;;88.22;47.53;;;-0.20;99.90;;;;;;5036736;28;20131;-84
2021/12/11 08:48:06;;;;;;;80.63;43.80;;;-0.10;99.90;;;;;;5030385;28;20048;-86
2021/12/11 08:50:56;;;;;;;88.95;45.95;;;0.00;99.90;;;;;;5020722;28;20195;-84
2021/12/11 08:53:42;;;;;;;107.68;53.15;;;0.10;99.90;;;;;;5027452;28;20521;-85
2021/12/11 08:56:29;;;;;;;99.63;47.30;;;0.10;99.90;;;;;;4996137;28;20145;-82
2021/12/11 08:59:19;;;;;;;103.43;51.28;;;0.10;99.90;;;;;;5021498;28;20057;-84
2021/12/11 09:02:19;;;;;;;117.07;57.85;;;0.20;99.90;;;;;;5025920;28;20544;-82
2021/12/11 09:05:11;;;;;;;121.15;59.08;;;0.30;99.90;;;;;;5019135;28;20518;-81
2021/12/11 09:07:43;;;;;;;142.32;70.60;;;0.40;99.90;;;;;;5003735;28;20141;-83
2021/12/11 09:10:17;;;;;;;144.13;77.07;;;0.50;99.90;;;;;;5031608;28;20318;-83
2021/12/11 09:12:49;;;;;;;128.48;73.35;;;0.50;99.90;;;;;;5009838;28;20056;-84
2021/12/11 09:15:41;;;;;;;135.55;65.80;;;0.50;99.90;;;;;;5036040;28;20051;-83
2021/12/11 09:18:37;;;;;;;126.70;62.20;;;0.70;99.90;;;;;;5041383;28;20079;-83
2021/12/11 09:21:31;;;;;;;113.40;51.90;;;0.70;99.90;;;;;;5040159;28;20441;-84
2021/12/11 09:24:26;;;;;;;107.90;55.58;;;0.70;99.90;;;;;;5040804;28;20057;-82
2021/12/11 09:27:22;;;;;;;102.13;53.83;;;0.70;99.90;;;;;;5024349;28;20060;-81
2021/12/11 09:30:19;;;;;;;95.80;49.95;;;0.80;99.90;;;;;;5028117;28;20787;-83
2021/12/11 09:33:12;;;;;;;90.47;51.80;;;0.90;99.90;;;;;;5029039;28;20419;-83
2021/12/11 09:36:06;;;;;;;102.28;52.22;;;0.90;99.90;;;;;;5025924;28;20053;-83
2021/12/11 09:39:00;;;;;;;99.78;53.28;;;1.00;99.90;;;;;;5025616;28;20046;-82
2021/12/11 09:41:51;;;;;;;110.97;58.30;;;0.90;99.90;;;;;;5047403;28;20060;-84
2021/12/11 09:44:47;;;;;;;103.32;54.85;;;0.90;99.90;;;;;;5018828;28;20049;-85
2021/12/11 09:47:41;;;;;;;101.97;51.30;;;0.90;99.90;;;;;;5045117;28;20051;-83
2021/12/11 09:50:45;;;;;;;98.22;50.75;;;0.90;99.90;;;;;;5030368;28;20114;-83
2021/12/11 09:53:35;;;;;;;102.85;54.05;;;0.90;99.90;;;;;;5014763;28;20128;-84
2021/12/11 09:56:51;;;;;;;105.65;51.92;;;0.90;99.90;;;;;;5030549;28;20042;-80
2021/12/11 09:59:39;;;;;;;93.63;47.70;;;0.90;99.90;;;;;;5062294;28;20563;-84
2021/12/11 10:02:31;;;;;;;96.20;50.22;;;0.80;99.90;;;;;;5051695;28;20469;-81
2021/12/11 10:05:31;;;;;;;101.28;52.30;;;0.80;99.90;;;;;;5052816;28;20090;-83
2021/12/11 10:08:28;;;;;;;114.90;56.72;;;0.80;99.90;;;;;;5050907;28;20036;-80
2021/12/11 10:11:27;;;;;;;103.88;53.47;;;0.80;99.90;;;;;;5040821;28;20210;-83
2021/12/11 10:14:17;;;;;;;105.35;53.25;;;0.80;99.90;;;;;;5041985;28;20129;-82
2021/12/11 10:17:15;;;;;;;105.38;49.28;;;0.90;99.90;;;;;;5026974;28;20144;-81
2021/12/11 10:20:10;;;;;;;107.30;51.42;;;0.80;99.90;;;;;;5013661;28;20056;-83
2021/12/11 10:23:00;;;;;;;108.72;52.38;;;0.80;99.90;;;;;;5041606;28;20046;-83
2021/12/11 10:25:48;;;;;;;103.18;49.58;;;0.80;99.90;;;;;;5025257;28;20513;-84
2021/12/11 10:28:41;;;;;;;112.90;53.80;;;0.70;99.90;;;;;;5051593;28;20068;-84
2021/12/11 10:31:37;;;;;;;117.25;56.85;;;0.70;99.90;;;;;;5059824;28;20094;-83
2021/12/11 10:34:08;;;;;;;113.38;49.15;;;0.80;99.90;;;;;;5038916;28;20044;-84
2021/12/11 10:36:41;;;;;;;112.22;47.78;;;0.80;99.90;;;;;;5053235;28;20095;-82
2021/12/11 10:39:11;;;;;;;122.25;55.67;;;0.80;99.90;;;;;;5048137;28;20124;-82
2021/12/11 10:41:43;;;;;;;;;;;0.80;99.90;;;;;;5052086;28;20064;-82
2021/12/11 10:44:21;;;;;;;117.85;59.38;;;0.80;99.90;;;;;;5059739;28;19912;-82
2021/12/11 10:47:14;;;;;;;125.85;57.45;;;0.90;99.90;;;;;;5055274;28;20102;-81
2021/12/11 10:50:15;;;;;;;130.60;58.30;;;0.80;99.90;;;;;;5034651;28;20193;-83
2021/12/11 10:52:43;;;;;;;146.27;63.58;;;0.90;99.90;;;;;;5050355;28;20059;-81
2021/12/11 10:55:14;;;;;;;138.93;65.82;;;0.90;99.90;;;;;;5049034;28;20053;-81
2021/12/11 10:57:41;;;;;;;136.90;63.42;;;0.90;99.90;;;;;;5048310;28;20055;-82
2021/12/11 11:00:18;;;;;;;131.07;59.90;;;0.90;99.90;;;;;;5054550;28;20048;-83
2021/12/11 11:02:45;;;;;;;139.38;61.72;;;0.90;99.90;;;;;;5050070;28;20047;-80
2021/12/11 11:05:18;;;;;;;148.70;62.65;;;0.90;99.90;;;;;;5035355;28;20098;-84
2021/12/11 11:07:46;;;;;;;136.95;64.45;;;0.90;99.90;;;;;;5050494;28;20044;-83
2021/12/11 11:10:20;;;;;;;146.95;67.78;;;0.90;99.90;;;;;;5048490;28;20052;-83
2021/12/11 11:13:07;;;;;;;153.98;68.68;;;1.00;99.90;;;;;;5056337;28;20785;-83
2021/12/11 11:15:36;;;;;;;138.63;63.97;;;1.10;99.90;;;;;;5062813;28;20062;-83
2021/12/11 11:18:04;;;;;;;135.43;62.83;;;1.20;99.90;;;;;;5057835;28;20048;-84
2021/12/11 11:20:34;;;;;;;123.40;57.65;;;1.30;99.90;;;;;;5048800;28;20916;-84
2021/12/11 11:23:03;;;;;;;132.00;61.25;;;1.30;99.90;;;;;;5049576;28;20063;-83
2021/12/11 11:25:36;;;;;;;138.90;59.53;;;1.40;99.90;;;;;;5036271;28;20047;-83
2021/12/11 11:28:08;;;;;;;137.70;61.13;;;1.50;99.90;;;;;;5045230;28;20403;-83
2021/12/11 11:30:39;;;;;;;113.55;53.95;;;1.40;99.90;;;;;;5049140;28;20098;-84
2021/12/11 11:33:08;;;;;;;117.40;55.45;;;1.40;99.90;;;;;;5050371;28;20143;-84
2021/12/11 11:35:42;;;;;;;118.47;55.17;;;1.40;99.90;;;;;;5028381;28;20053;-83
2021/12/11 11:38:13;;;;;;;117.20;54.42;;;1.40;99.90;;;;;;5045710;28;20130;-83
2021/12/11 11:40:46;;;;;;;104.30;51.92;;;1.50;99.90;;;;;;5046102;28;20049;-84
2021/12/11 11:43:15;;;;;;;101.00;51.88;;;1.60;99.90;;;;;;5057724;28;20097;-84
2021/12/11 11:45:45;;;;;;;110.50;49.40;;;1.70;99.90;;;;;;5060505;28;20064;-83
2021/12/11 11:48:13;;;;;;;92.38;44.92;;;1.70;99.90;;;;;;5047195;28;20041;-83
2021/12/11 11:51:04;;;;;;;107.53;48.83;;;1.70;99.90;;;;;;5048834;28;20143;-83
2021/12/11 11:53:36;;;;;;;97.35;47.28;;;1.80;99.90;;;;;;5036055;28;20044;-82
2021/12/11 11:56:12;;;;;;;90.25;42.80;;;1.90;99.90;;;;;;5042447;28;20110;-84
2021/12/11 11:58:49;;;;;;;92.47;45.75;;;1.90;99.90;;;;;;5030284;28;20094;-84
2021/12/11 12:05:49;;;;;;;91.35;43.55;;;2.20;99.90;;;;;;5023695;28;20135;-83
2021/12/11 12:08:52;;;;;;;83.75;41.22;;;2.20;99.90;;;;;;5046911;28;20056;-84
2021/12/11 12:11:48;;;;;;;69.88;36.13;;;2.30;99.90;;;;;;5018975;28;20199;-85
2021/12/11 12:14:26;;;;;;;73.15;36.15;;;2.20;99.90;;;;;;5049216;28;20363;-83
2021/12/11 12:17:52;;;;;;;73.82;36.00;;;2.10;99.90;;;;;;5038970;28;20055;-84
2021/12/11 12:25:15;;;;;;;73.72;36.08;;;2.10;99.90;;;;;;5047458;28;20067;-85
2021/12/11 12:28:32;;;;;;;67.22;37.58;;;2.20;99.90;;;;;;4968484;28;603804;-83
2021/12/11 12:31:50;;;;;;;75.60;35.75;;;2.20;99.90;;;;;;4933570;28;21054;-85
2021/12/11 12:34:46;;;;;;;77.35;36.70;;;2.40;99.90;;;;;;5024497;28;20057;-84
2021/12/11 12:38:44;;;;;;;68.97;36.50;;;2.40;99.90;;;;;;5036187;28;20045;-84
2021/12/11 12:45:59;;;;;;;;;;;;;;;;;;;;;
2021/12/11 12:49:38;;;;;;;71.72;36.13;;;2.50;99.90;;;;;;5031540;28;20092;-82
2021/12/11 12:52:57;;;;;;;78.50;38.47;;;2.40;99.90;;;;;;5027743;28;20156;-81
2021/12/11 12:56:15;;;;;;;;;;;2.50;99.90;;;;;;5030832;28;20057;-82
2021/12/11 12:59:46;;;;;;;74.55;36.78;;;2.50;99.90;;;;;;4973779;28;19929;-83
2021/12/11 13:03:00;;;;;;;79.82;36.55;;;2.40;99.90;;;;;;4954252;28;20141;-83
2021/12/11 13:05:52;;;;;;;73.20;39.22;;;2.30;99.90;;;;;;4987743;28;20060;-83
2021/12/11 13:08:55;;;;;;;67.78;35.17;;;2.40;99.90;;;;;;5006126;28;20050;-82
2021/12/11 13:11:54;;;;;;;71.20;35.95;;;2.40;99.90;;;;;;5014164;28;20040;-82
2021/12/11 13:14:22;;;;;;;70.90;35.45;;;2.50;99.90;;;;;;5011123;28;20098;-83
2021/12/11 13:16:57;;;;;;;68.82;35.35;;;2.60;99.90;;;;;;4999310;28;20054;-82
2021/12/11 13:19:34;;;;;;;;;;;2.50;99.90;;;;;;4999531;28;20131;-81
2021/12/11 13:22:26;;;;;;;72.80;34.25;;;2.50;99.90;;;;;;5018482;28;19925;-81
2021/12/11 13:25:20;;;;;;;73.55;36.45;;;2.60;99.90;;;;;;5026638;28;20099;-82
2021/12/11 13:27:56;;;;;;;69.80;37.20;;;2.60;99.90;;;;;;5016990;28;20045;-81
2021/12/11 13:30:30;;;;;;;61.70;35.40;;;2.50;99.90;;;;;;5039151;28;20715;-81
2021/12/11 13:33:05;;;;;;;67.72;35.45;;;2.50;99.90;;;;;;5056612;28;20044;-81
2021/12/11 13:35:37;;;;;;;63.35;36.35;;;2.50;99.90;;;;;;5025991;28;20844;-81
2021/12/11 13:38:08;;;;;;;68.38;37.03;;;2.50;99.90;;;;;;5017610;28;20049;-82
2021/12/11 13:40:40;;;;;;;70.32;36.58;;;2.50;99.90;;;;;;5032031;28;20052;-81
2021/12/11 13:43:11;;;;;;;57.92;33.20;;;2.40;99.90;;;;;;5030766;28;20049;-82
2021/12/11 13:45:47;;;;;;;69.13;35.20;;;2.40;99.90;;;;;;5023842;28;20498;-83
2021/12/11 13:48:21;;;;;;;62.55;34.85;;;2.40;99.90;;;;;;5019316;28;20091;-81
2021/12/11 13:51:03;;;;;;;75.53;36.70;;;2.40;99.90;;;;;;5017030;28;20048;-80
2021/12/11 13:53:33;;;;;;;64.90;36.20;;;2.40;99.90;;;;;;5034019;28;20052;-80
2021/12/11 13:56:04;;;;;;;65.35;36.38;;;2.30;99.90;;;;;;5047741;28;20051;-80
2021/12/11 13:58:30;;;;;;;68.65;36.92;;;2.30;99.90;;;;;;5037921;28;20053;-81
2021/12/11 14:01:06;;;;;;;75.93;37.60;;;2.20;99.90;;;;;;4998638;28;20129;-83
2021/12/11 14:03:34;;;;;;;70.03;35.08;;;2.30;99.90;;;;;;5022569;28;20099;-81
2021/12/11 14:06:04;;;;;;;73.72;36.63;;;2.20;99.90;;;;;;5039009;28;20048;-84
2021/12/11 14:08:34;;;;;;;74.95;38.70;;;2.20;99.90;;;;;;5013976;28;20053;-82
2021/12/11 14:11:06;;;;;;;70.60;37.80;;;2.20;99.90;;;;;;5006149;28;20140;-83
2021/12/11 14:13:33;;;;;;;67.38;38.00;;;2.20;99.90;;;;;;5034862;28;20597;-82
2021/12/11 14:16:02;;;;;;;74.93;37.17;;;2.30;99.90;;;;;;5035513;28;20045;-82
2021/12/11 14:18:29;;;;;;;77.03;37.08;;;2.20;99.90;;;;;;5038312;28;20080;-82
2021/12/11 14:20:56;;;;;;;74.97;36.75;;;2.10;99.90;;;;;;5032107;28;20654;-83
2021/12/11 14:23:32;;;;;;;75.55;37.03;;;2.00;99.90;;;;;;5048784;28;20045;-82
2021/12/11 14:27:48;;;;;;;64.95;35.50;;;2.00;99.90;;;;;;4930726;28;20555;-82
2021/12/11 14:36:52;;;;;;;;;;;;;;;;;;;;;
2021/12/11 14:54:09;;;;;;;104.68;48.95;;;1.60;99.90;;;;;;4976850;28;20075;-82
2021/12/11 14:57:00;;;;;;;91.20;48.90;;;1.40;99.90;;;;;;4950906;22;20055;-71
2021/12/11 14:59:39;;;;;;;96.00;51.70;;;1.30;99.90;;;;;;4982988;23;20056;-82
2021/12/11 15:02:15;;;;;;;96.80;48.80;;;1.20;99.90;;;;;;4975860;28;20046;-79
2021/12/11 15:04:48;;;;;;;98.47;52.42;;;1.10;99.90;;;;;;4990439;28;20405;-77
2021/12/11 15:07:18;;;;;;;98.53;52.10;;;1.00;99.90;;;;;;4999297;28;20049;-81
2021/12/11 15:09:45;;;;;;;99.40;54.20;;;0.80;99.90;;;;;;5004003;28;20167;-79